createdAt,value
2019-06-20T00:05:07.646Z,20.89
2019-06-20T00:10:15.085Z,20.84
2019-06-20T00:15:22.421Z,20.80
2019-06-20T00:20:29.727Z,20.55
2019-06-20T00:25:37.273Z,20.42
2019-06-20T00:30:44.653Z,20.52
2019-06-20T00:35:52.008Z,20.32
2019-06-20T00:40:59.292Z,20.21
2019-06-20T00:46:06.588Z,20.19
2019-06-20T00:51:14.021Z,19.98
2019-06-20T00:56:21.444Z,20.17
2019-06-20T01:01:28.792Z,20.11
2019-06-20T01:06:36.258Z,19.97
2019-06-20T01:11:43.524Z,19.82
2019-06-20T01:16:50.819Z,20.00
2019-06-20T01:21:58.103Z,19.66
2019-06-20T01:27:05.503Z,19.48
2019-06-20T01:32:12.840Z,19.31
2019-06-20T01:37:20.220Z,19.54
2019-06-20T01:42:27.539Z,19.22
2019-06-20T01:47:34.811Z,19.35
2019-06-20T01:58:43.247Z,19.24
2019-06-20T02:03:50.566Z,18.96
2019-06-20T02:08:57.968Z,19.12
2019-06-20T02:14:07.713Z,18.84
2019-06-20T02:19:15.313Z,18.76
2019-06-20T02:24:22.649Z,18.72
2019-06-20T02:29:30.029Z,18.54
2019-06-20T02:34:37.393Z,18.42
2019-06-20T02:39:44.825Z,18.69
2019-06-20T02:44:52.244Z,18.61
2019-06-20T02:49:59.676Z,18.70
2019-06-20T02:55:07.551Z,18.56
2019-06-20T03:00:16.462Z,18.58
2019-06-20T03:05:23.877Z,18.69
2019-06-20T03:10:31.295Z,18.35
2019-06-20T03:15:38.724Z,18.52
2019-06-20T03:20:46.119Z,18.37
2019-06-20T03:25:53.522Z,18.18
2019-06-20T03:31:00.847Z,18.12
2019-06-20T03:36:08.182Z,17.99
2019-06-20T03:41:15.475Z,18.25
2019-06-20T03:46:22.759Z,18.59
2019-06-20T03:51:30.097Z,18.60
2019-06-20T03:56:37.434Z,18.69
2019-06-20T04:01:44.802Z,18.47
2019-06-20T04:06:52.254Z,18.68
2019-06-20T04:11:59.568Z,18.98
2019-06-20T04:17:06.931Z,18.93
2019-06-20T04:22:14.293Z,19.20
2019-06-20T04:27:21.619Z,19.39
2019-06-20T04:32:29.007Z,19.44
2019-06-20T04:37:36.413Z,19.81
2019-06-20T04:42:43.784Z,20.06
2019-06-20T04:47:51.122Z,20.15
2019-06-20T04:52:58.417Z,20.18
2019-06-20T04:58:05.785Z,20.18
2019-06-20T05:03:13.258Z,20.06
2019-06-20T05:08:20.681Z,20.12
2019-06-20T05:13:27.983Z,20.23
2019-06-20T05:18:35.306Z,20.23
2019-06-20T05:23:42.597Z,20.30
2019-06-20T05:28:49.830Z,20.49
2019-06-20T05:33:57.169Z,20.54
2019-06-20T05:39:04.954Z,20.60
2019-06-20T05:44:12.355Z,20.54
2019-06-20T05:49:19.706Z,20.39
2019-06-20T05:54:27.146Z,20.29
2019-06-20T05:59:34.585Z,20.16
2019-06-20T06:04:41.833Z,19.94
2019-06-20T06:09:49.169Z,19.88
2019-06-20T06:14:56.688Z,19.84
2019-06-20T06:20:04.068Z,19.98
2019-06-20T06:25:12.534Z,20.10
2019-06-20T06:30:20.481Z,20.13
2019-06-20T06:35:27.931Z,20.20
2019-06-20T06:40:35.272Z,20.35
2019-06-20T06:45:42.696Z,20.41
2019-06-20T06:50:50.105Z,20.71
2019-06-20T06:55:58.352Z,21.03
2019-06-20T07:01:07.181Z,21.17
2019-06-20T07:06:14.892Z,21.30
2019-06-20T07:11:22.210Z,21.38
2019-06-20T07:16:29.671Z,21.44
2019-06-20T07:21:36.986Z,21.59
2019-06-20T07:26:44.446Z,21.81
2019-06-20T07:31:51.971Z,21.85
2019-06-20T07:36:59.311Z,21.79
2019-06-20T07:42:06.612Z,21.93
2019-06-20T07:47:17.851Z,21.92
2019-06-20T07:52:22.911Z,21.96
2019-06-20T07:57:30.213Z,22.23
2019-06-20T08:02:37.720Z,22.20
2019-06-20T08:07:45.064Z,21.99
2019-06-20T08:12:52.439Z,21.91
2019-06-20T08:17:59.764Z,21.79
2019-06-20T08:23:08.527Z,21.86
2019-06-20T08:28:15.819Z,22.05
2019-06-20T08:33:23.195Z,22.47
2019-06-20T08:38:30.575Z,22.84
2019-06-20T08:43:37.971Z,22.68
2019-06-20T08:48:45.398Z,22.55
2019-06-20T08:53:52.758Z,22.36
2019-06-20T08:59:00.610Z,22.28
2019-06-20T09:04:08.002Z,22.17
2019-06-20T09:09:15.419Z,22.16
2019-06-20T09:14:22.826Z,22.18
2019-06-20T09:19:30.145Z,22.23
2019-06-20T09:24:37.515Z,22.35
2019-06-20T09:29:44.914Z,22.49
2019-06-20T09:34:53.021Z,22.63
2019-06-20T09:40:01.205Z,22.85
2019-06-20T09:45:09.250Z,23.13
2019-06-20T09:50:18.473Z,23.49
2019-06-20T09:55:26.002Z,23.71
2019-06-20T10:00:34.582Z,24.28
2019-06-20T10:05:41.950Z,24.91
2019-06-20T10:10:50.623Z,25.45
2019-06-20T10:15:58.551Z,25.97
2019-06-20T10:21:05.963Z,26.28
2019-06-20T10:26:13.186Z,26.77
2019-06-20T10:31:21.603Z,27.08
2019-06-20T10:36:28.922Z,27.54
2019-06-20T10:41:36.275Z,27.83
2019-06-20T10:46:44.576Z,28.28
2019-06-20T10:51:52.652Z,28.28
2019-06-20T10:57:00.061Z,27.83
2019-06-20T11:02:07.522Z,27.56
2019-06-20T11:07:14.854Z,27.35
2019-06-20T11:12:22.266Z,27.31
2019-06-20T11:17:29.580Z,27.78
2019-06-20T11:22:38.416Z,28.32
2019-06-20T11:27:47.331Z,28.57
2019-06-20T11:32:54.938Z,28.28
2019-06-20T11:38:02.338Z,28.37
2019-06-20T11:43:09.704Z,28.06
2019-06-20T11:48:17.111Z,27.85
2019-06-20T11:53:24.550Z,27.39
2019-06-20T11:58:32.044Z,26.65
2019-06-20T12:03:40.650Z,26.20
2019-06-20T12:08:49.042Z,25.94
2019-06-20T12:13:56.536Z,25.76
2019-06-20T12:19:04.029Z,25.49
2019-06-20T12:24:11.380Z,25.40
2019-06-20T12:29:18.831Z,25.24
2019-06-20T12:34:26.162Z,25.12
2019-06-20T12:39:33.416Z,24.78
2019-06-20T12:44:41.679Z,24.76
2019-06-20T12:49:50.615Z,24.76
2019-06-20T12:54:58.158Z,24.75
2019-06-20T13:00:06.287Z,24.71
2019-06-20T13:05:14.816Z,24.62
2019-06-20T13:10:22.994Z,24.57
2019-06-20T13:15:31.298Z,24.58
2019-06-20T13:20:39.320Z,24.49
2019-06-20T13:25:48.902Z,24.33
2019-06-20T13:30:56.401Z,24.26
2019-06-20T13:36:03.863Z,24.10
2019-06-20T13:41:11.257Z,24.10
2019-06-20T13:46:18.868Z,24.22
2019-06-20T13:51:26.451Z,23.96
2019-06-20T13:56:33.743Z,24.41
2019-06-20T14:01:42.074Z,24.58
2019-06-20T14:06:49.905Z,24.92
2019-06-20T14:11:58.266Z,27.87
2019-06-20T14:17:05.658Z,29.48
2019-06-20T14:22:13.001Z,30.04
2019-06-20T14:27:20.503Z,28.94
2019-06-20T14:32:28.038Z,27.85
2019-06-20T14:37:36.488Z,28.39
2019-06-20T14:42:44.550Z,28.38
2019-06-20T14:47:53.314Z,27.64
2019-06-20T14:53:00.746Z,27.20
2019-06-20T14:58:09.314Z,27.61
2019-06-20T15:03:16.844Z,27.05
2019-06-20T15:08:24.150Z,27.84
2019-06-20T15:13:32.113Z,28.48
2019-06-20T15:18:39.500Z,28.15
2019-06-20T15:23:48.836Z,28.82
2019-06-20T15:28:56.982Z,29.29
2019-06-20T15:34:04.547Z,28.36
2019-06-20T15:39:12.100Z,28.20
2019-06-20T15:44:19.468Z,28.54
2019-06-20T15:49:26.798Z,28.13
2019-06-20T15:54:34.260Z,27.45
2019-06-20T15:59:42.272Z,27.62
2019-06-20T16:04:49.756Z,27.16
2019-06-20T16:09:58.036Z,26.78
2019-06-20T16:15:06.398Z,26.70
2019-06-20T16:20:13.985Z,26.66
2019-06-20T16:25:21.472Z,26.53
2019-06-20T16:30:28.867Z,26.28
2019-06-20T16:35:36.097Z,26.02
2019-06-20T16:40:50.473Z,25.86
2019-06-20T16:45:57.876Z,25.71
2019-06-20T16:51:05.497Z,25.65
2019-06-20T16:56:12.948Z,25.56
2019-06-20T17:01:20.375Z,25.56
2019-06-20T17:06:28.012Z,25.48
2019-06-20T17:11:35.446Z,25.52
2019-06-20T17:16:42.801Z,25.55
2019-06-20T17:21:50.197Z,25.54
2019-06-20T17:26:57.655Z,25.44
2019-06-20T17:32:05.088Z,25.24
2019-06-20T17:37:13.558Z,25.07
2019-06-20T17:42:21.013Z,24.94
2019-06-20T17:47:28.755Z,24.83
2019-06-20T17:52:37.107Z,24.63
2019-06-20T17:57:44.436Z,24.61
2019-06-20T18:02:51.805Z,24.53
2019-06-20T18:08:11.410Z,24.38
2019-06-20T18:13:08.200Z,24.42
2019-06-20T18:18:15.585Z,24.04
2019-06-20T18:23:23.031Z,23.94
2019-06-20T18:28:30.420Z,24.03
2019-06-20T18:33:37.807Z,24.16
2019-06-20T18:38:45.841Z,23.96
2019-06-20T18:43:53.296Z,23.78
2019-06-20T18:49:00.604Z,23.99
2019-06-20T18:54:08.086Z,23.70
2019-06-20T18:59:15.599Z,23.72
2019-06-20T19:04:23.187Z,23.56
2019-06-20T19:09:30.567Z,23.72
2019-06-20T19:14:37.859Z,23.69
2019-06-20T19:19:46.354Z,23.74
2019-06-20T19:24:53.861Z,23.67
2019-06-20T19:30:01.410Z,23.54
2019-06-20T19:35:10.430Z,23.26
2019-06-20T19:40:18.838Z,23.42
2019-06-20T19:45:27.597Z,23.37
2019-06-20T19:50:34.917Z,23.15
2019-06-20T19:55:43.045Z,22.89
2019-06-20T20:00:50.358Z,22.77
2019-06-20T20:05:58.546Z,22.70
2019-06-20T20:11:06.109Z,22.48
2019-06-20T20:16:13.537Z,22.49
2019-06-20T20:21:20.897Z,22.31
2019-06-20T20:26:28.321Z,22.19
2019-06-20T20:31:35.604Z,21.84
2019-06-20T20:36:43.447Z,21.74
2019-06-20T20:41:50.732Z,21.64
2019-06-20T20:46:58.109Z,21.50
2019-06-20T20:52:05.697Z,21.19
2019-06-20T20:57:13.201Z,21.16
2019-06-20T21:02:20.591Z,21.12
2019-06-20T21:07:28.039Z,21.15
2019-06-20T21:12:35.531Z,21.14
2019-06-20T21:17:42.992Z,20.78
2019-06-20T21:22:50.418Z,20.98
2019-06-20T21:27:57.837Z,20.93
2019-06-20T21:33:05.248Z,21.04
2019-06-20T21:38:12.696Z,20.98
2019-06-20T21:43:20.169Z,21.04
2019-06-20T22:17:00.160Z,20.76
2019-06-20T22:22:07.794Z,20.81
2019-06-20T22:27:15.163Z,20.58
2019-06-20T22:32:22.587Z,20.61
2019-06-20T22:37:30.029Z,20.74
2019-06-20T22:42:37.634Z,20.72
2019-06-20T22:47:45.074Z,20.70
2019-06-20T22:52:52.551Z,20.48
2019-06-20T22:58:00.075Z,20.15
2019-06-20T23:03:08.203Z,20.16
2019-06-20T23:08:15.724Z,20.16
2019-06-20T23:14:10.310Z,20.27
2019-06-20T23:19:17.843Z,20.32
2019-06-20T23:24:25.518Z,20.20
2019-06-20T23:29:33.025Z,19.99
2019-06-20T23:34:40.532Z,20.06
2019-06-20T23:39:48.024Z,20.07
2019-06-20T23:44:55.564Z,19.61
2019-06-20T23:50:03.201Z,19.81
2019-06-20T23:55:10.947Z,19.62
